Falling Rock, West Virginia
Current Conditions -  °F | °C
As of 9:14 AM on Tuesday 27 Jan 2015 (Local Time) from KCRW Reporting Station
Light Snow Light Snow  
Wind Chill: 18°   Ceiling: 1700
Heat Index: 18°   Visibility: 7mi
Dew Point: 14°   Wind: 3mph
Humidity: 84%   Direction: 250°WSW
Pressure: 29.99"   Gusts: NA
Location:  38.47°N, 81.4°W
Report Text: KCRW 271414Z 25003KT 7SM -SN BKN017 M08/M10 A2999 RMK AO2 SNB14 P0000 T10781100
Loading
Personal Weather Stations






























Interactive Weather Map New forecast layout! Learn more

10-Day Weather Forecast

Advertisements
Track Severe Weather on mobile